sensor_id;sensor_type;location;lat;lon;timestamp;pressure;altitude;pressure_sealevel;temperature;humidity
3434;BME280;1730;41.932;25.548;2024-01-27T00:01:37;99771.53;;;5.64;100.00
3434;BME280;1730;41.932;25.548;2024-01-27T00:04:03;99697.94;;;5.59;100.00
3434;BME280;1730;41.932;25.548;2024-01-27T00:06:29;99352.41;;;3.55;100.00
3434;BME280;1730;41.932;25.548;2024-01-27T00:08:54;99660.28;;;5.38;100.00
3434;BME280;1730;41.932;25.548;2024-01-27T00:11:20;99730.25;;;5.56;100.00
3434;BME280;1730;41.932;25.548;2024-01-27T00:13:45;99728.63;;;5.66;100.00
3434;BME280;1730;41.932;25.548;2024-01-27T00:16:12;99697.50;;;5.65;100.00
3434;BME280;1730;41.932;25.548;2024-01-27T00:18:38;99509.97;;;4.63;100.00
3434;BME280;1730;41.932;25.548;2024-01-27T00:21:05;99708.56;;;5.71;100.00
3434;BME280;1730;41.932;25.548;2024-01-27T00:23:31;99692.88;;;5.67;100.00
3434;BME280;1730;41.932;25.548;2024-01-27T00:25:58;99520.56;;;4.65;100.00
3434;BME280;1730;41.932;25.548;2024-01-27T00:28:23;99642.84;;;5.09;100.00
3434;BME280;1730;41.932;25.548;2024-01-27T00:30:48;99402.59;;;3.87;100.00
3434;BME280;1730;41.932;25.548;2024-01-27T00:33:14;99277.06;;;3.04;100.00
3434;BME280;1730;41.932;25.548;2024-01-27T00:35:40;99578.28;;;4.78;100.00
3434;BME280;1730;41.932;25.548;2024-01-27T00:38:05;99688.19;;;5.34;100.00
3434;BME280;1730;41.932;25.548;2024-01-27T00:40:31;99694.03;;;5.15;100.00
3434;BME280;1730;41.932;25.548;2024-01-27T00:42:56;99733.66;;;5.34;100.00
3434;BME280;1730;41.932;25.548;2024-01-27T00:45:22;99529.06;;;4.33;100.00
3434;BME280;1730;41.932;25.548;2024-01-27T00:47:49;99717.66;;;5.45;100.00
3434;BME280;1730;41.932;25.548;2024-01-27T00:50:15;99732.91;;;5.32;100.00
3434;BME280;1730;41.932;25.548;2024-01-27T00:52:40;99570.56;;;4.50;100.00
3434;BME280;1730;41.932;25.548;2024-01-27T00:55:08;99535.13;;;4.35;100.00
3434;BME280;1730;41.932;25.548;2024-01-27T00:57:36;99396.47;;;3.48;100.00
3434;BME280;1730;41.932;25.548;2024-01-27T01:00:01;99744.41;;;5.45;100.00
3434;BME280;1730;41.932;25.548;2024-01-27T01:02:27;99727.16;;;5.49;100.00
3434;BME280;1730;41.932;25.548;2024-01-27T01:04:54;99520.22;;;4.33;100.00
3434;BME280;1730;41.932;25.548;2024-01-27T01:07:19;99345.84;;;3.36;100.00
3434;BME280;1730;41.932;25.548;2024-01-27T01:09:45;99726.50;;;5.34;100.00
3434;BME280;1730;41.932;25.548;2024-01-27T01:12:11;99187.88;;;2.10;100.00
3434;BME280;1730;41.932;25.548;2024-01-27T01:14:36;99442.53;;;3.76;100.00
3434;BME280;1730;41.932;25.548;2024-01-27T01:17:02;99724.53;;;5.36;100.00
3434;BME280;1730;41.932;25.548;2024-01-27T01:19:28;99497.06;;;4.21;100.00
3434;BME280;1730;41.932;25.548;2024-01-27T01:21:53;99000.94;;;0.95;100.00
3434;BME280;1730;41.932;25.548;2024-01-27T01:24:19;99701.56;;;5.34;100.00
3434;BME280;1730;41.932;25.548;2024-01-27T01:26:44;99681.66;;;5.38;100.00
3434;BME280;1730;41.932;25.548;2024-01-27T01:29:10;99682.38;;;5.40;100.00
3434;BME280;1730;41.932;25.548;2024-01-27T01:31:35;99555.62;;;4.35;100.00
3434;BME280;1730;41.932;25.548;2024-01-27T01:34:01;99707.50;;;5.14;100.00
3434;BME280;1730;41.932;25.548;2024-01-27T01:36:27;99669.38;;;4.99;100.00
3434;BME280;1730;41.932;25.548;2024-01-27T01:38:52;99531.44;;;4.00;100.00
3434;BME280;1730;41.932;25.548;2024-01-27T01:41:18;99500.53;;;3.97;100.00
3434;BME280;1730;41.932;25.548;2024-01-27T01:43:43;99726.87;;;4.92;100.00
3434;BME280;1730;41.932;25.548;2024-01-27T01:46:09;99689.59;;;4.90;100.00
3434;BME280;1730;41.932;25.548;2024-01-27T01:48:35;99675.25;;;4.91;100.00
3434;BME280;1730;41.932;25.548;2024-01-27T01:51:00;99524.53;;;3.85;100.00
3434;BME280;1730;41.932;25.548;2024-01-27T01:53:26;99459.25;;;3.52;100.00
3434;BME280;1730;41.932;25.548;2024-01-27T01:55:52;99733.22;;;4.91;100.00
3434;BME280;1730;41.932;25.548;2024-01-27T01:58:18;99673.13;;;4.96;100.00
3434;BME280;1730;41.932;25.548;2024-01-27T02:00:44;99515.25;;;3.78;100.00
3434;BME280;1730;41.932;25.548;2024-01-27T02:03:13;99509.25;;;3.99;100.00
3434;BME280;1730;41.932;25.548;2024-01-27T02:05:39;99668.31;;;5.02;100.00
3434;BME280;1730;41.932;25.548;2024-01-27T02:08:05;99683.66;;;5.11;100.00
3434;BME280;1730;41.932;25.548;2024-01-27T02:10:31;99672.25;;;5.09;100.00
3434;BME280;1730;41.932;25.548;2024-01-27T02:13:19;99425.78;;;3.23;100.00
3434;BME280;1730;41.932;25.548;2024-01-27T02:15:45;99580.66;;;4.21;100.00
3434;BME280;1730;41.932;25.548;2024-01-27T02:18:12;99317.97;;;2.78;100.00
3434;BME280;1730;41.932;25.548;2024-01-27T02:20:38;99675.19;;;4.80;100.00
3434;BME280;1730;41.932;25.548;2024-01-27T02:23:04;98996.25;;;0.85;100.00
3434;BME280;1730;41.932;25.548;2024-01-27T02:25:34;99699.56;;;4.76;100.00
3434;BME280;1730;41.932;25.548;2024-01-27T02:28:01;99519.72;;;3.52;100.00
3434;BME280;1730;41.932;25.548;2024-01-27T02:30:28;99156.34;;;1.40;100.00
3434;BME280;1730;41.932;25.548;2024-01-27T02:32:55;99405.41;;;2.84;100.00
3434;BME280;1730;41.932;25.548;2024-01-27T02:35:21;99672.03;;;4.37;100.00
3434;BME280;1730;41.932;25.548;2024-01-27T02:37:46;99314.22;;;2.16;100.00
3434;BME280;1730;41.932;25.548;2024-01-27T02:40:12;99093.66;;;1.10;100.00
3434;BME280;1730;41.932;25.548;2024-01-27T02:42:39;99678.44;;;4.60;100.00
3434;BME280;1730;41.932;25.548;2024-01-27T02:45:07;99406.28;;;3.10;100.00
3434;BME280;1730;41.932;25.548;2024-01-27T02:47:32;99618.84;;;3.96;100.00
3434;BME280;1730;41.932;25.548;2024-01-27T02:49:58;99317.41;;;2.08;100.00
3434;BME280;1730;41.932;25.548;2024-01-27T02:52:23;99416.31;;;3.06;100.00
3434;BME280;1730;41.932;25.548;2024-01-27T02:54:49;99535.72;;;3.64;100.00
3434;BME280;1730;41.932;25.548;2024-01-27T02:57:15;99706.94;;;4.60;100.00
3434;BME280;1730;41.932;25.548;2024-01-27T02:59:47;99606.03;;;3.89;100.00
3434;BME280;1730;41.932;25.548;2024-01-27T03:02:12;99703.75;;;4.54;100.00
3434;BME280;1730;41.932;25.548;2024-01-27T03:04:38;99705.78;;;4.51;100.00
3434;BME280;1730;41.932;25.548;2024-01-27T03:07:04;99535.28;;;3.58;100.00
3434;BME280;1730;41.932;25.548;2024-01-27T03:09:30;99655.25;;;4.23;100.00
3434;BME280;1730;41.932;25.548;2024-01-27T03:11:56;99699.88;;;4.59;100.00
3434;BME280;1730;41.932;25.548;2024-01-27T03:14:22;99637.84;;;4.42;100.00
3434;BME280;1730;41.932;25.548;2024-01-27T03:16:47;99675.44;;;4.65;100.00
3434;BME280;1730;41.932;25.548;2024-01-27T03:19:13;99671.69;;;4.54;100.00
3434;BME280;1730;41.932;25.548;2024-01-27T03:21:39;99663.88;;;4.26;100.00
3434;BME280;1730;41.932;25.548;2024-01-27T03:24:04;99712.69;;;4.28;100.00
3434;BME280;1730;41.932;25.548;2024-01-27T03:26:30;99508.50;;;3.34;100.00
3434;BME280;1730;41.932;25.548;2024-01-27T03:28:55;99541.03;;;3.52;100.00
3434;BME280;1730;41.932;25.548;2024-01-27T03:31:21;99368.91;;;2.47;100.00
3434;BME280;1730;41.932;25.548;2024-01-27T03:33:50;99675.00;;;4.20;100.00
3434;BME280;1730;41.932;25.548;2024-01-27T03:36:28;99676.59;;;4.10;100.00
3434;BME280;1730;41.932;25.548;2024-01-27T03:38:55;99335.59;;;1.47;100.00
3434;BME280;1730;41.932;25.548;2024-01-27T03:41:22;99531.09;;;2.62;100.00
3434;BME280;1730;41.932;25.548;2024-01-27T03:43:47;99345.66;;;0.85;100.00
3434;BME280;1730;41.932;25.548;2024-01-27T03:46:13;99379.38;;;1.27;100.00
3434;BME280;1730;41.932;25.548;2024-01-27T03:48:38;99151.31;;;-0.18;100.00
3434;BME280;1730;41.932;25.548;2024-01-27T03:51:04;99260.16;;;0.37;100.00
3434;BME280;1730;41.932;25.548;2024-01-27T03:53:30;99728.50;;;2.97;100.00
3434;BME280;1730;41.932;25.548;2024-01-27T03:55:56;99738.94;;;3.14;100.00
3434;BME280;1730;41.932;25.548;2024-01-27T03:58:28;99767.13;;;3.04;100.00
3434;BME280;1730;41.932;25.548;2024-01-27T04:00:53;99561.00;;;1.83;100.00
3434;BME280;1730;41.932;25.548;2024-01-27T04:03:23;99749.81;;;2.97;100.00
3434;BME280;1730;41.932;25.548;2024-01-27T04:05:49;99618.84;;;2.36;100.00
3434;BME280;1730;41.932;25.548;2024-01-27T04:08:15;99749.97;;;3.08;100.00
3434;BME280;1730;41.932;25.548;2024-01-27T04:10:41;99722.91;;;2.73;100.00
3434;BME280;1730;41.932;25.548;2024-01-27T04:13:06;99555.97;;;1.92;100.00
3434;BME280;1730;41.932;25.548;2024-01-27T04:15:35;99784.81;;;3.05;100.00
3434;BME280;1730;41.932;25.548;2024-01-27T04:18:07;99313.50;;;-0.28;100.00
3434;BME280;1730;41.932;25.548;2024-01-27T04:20:34;99753.34;;;2.98;100.00
3434;BME280;1730;41.932;25.548;2024-01-27T04:23:03;99751.25;;;2.89;100.00
3434;BME280;1730;41.932;25.548;2024-01-27T04:25:29;99745.59;;;3.07;100.00
3434;BME280;1730;41.932;25.548;2024-01-27T04:27:55;99223.91;;;-0.36;100.00
3434;BME280;1730;41.932;25.548;2024-01-27T04:30:22;99570.22;;;1.91;100.00
3434;BME280;1730;41.932;25.548;2024-01-27T04:32:53;99754.94;;;3.00;100.00
3434;BME280;1730;41.932;25.548;2024-01-27T04:35:19;99724.28;;;3.07;100.00
3434;BME280;1730;41.932;25.548;2024-01-27T04:37:45;99643.53;;;2.52;100.00
3434;BME280;1730;41.932;25.548;2024-01-27T04:40:11;99559.84;;;2.29;100.00
3434;BME280;1730;41.932;25.548;2024-01-27T04:42:41;99162.22;;;0.06;100.00
3434;BME280;1730;41.932;25.548;2024-01-27T04:45:07;99703.81;;;3.22;100.00
3434;BME280;1730;41.932;25.548;2024-01-27T04:47:33;99531.75;;;1.97;100.00
3434;BME280;1730;41.932;25.548;2024-01-27T04:49:59;99695.84;;;3.08;100.00
3434;BME280;1730;41.932;25.548;2024-01-27T04:52:24;99737.44;;;3.25;100.00
3434;BME280;1730;41.932;25.548;2024-01-27T04:54:51;99545.00;;;2.39;100.00
3434;BME280;1730;41.932;25.548;2024-01-27T04:57:17;99704.34;;;3.41;100.00
3434;BME280;1730;41.932;25.548;2024-01-27T04:59:42;99719.41;;;3.28;100.00
3434;BME280;1730;41.932;25.548;2024-01-27T05:02:08;99690.31;;;3.52;100.00
3434;BME280;1730;41.932;25.548;2024-01-27T05:04:33;99691.47;;;3.48;100.00
3434;BME280;1730;41.932;25.548;2024-01-27T05:06:59;99455.00;;;2.19;100.00
3434;BME280;1730;41.932;25.548;2024-01-27T05:09:25;99676.25;;;3.50;100.00
3434;BME280;1730;41.932;25.548;2024-01-27T05:11:51;99233.19;;;0.87;100.00
3434;BME280;1730;41.932;25.548;2024-01-27T05:14:19;99367.75;;;1.56;100.00
3434;BME280;1730;41.932;25.548;2024-01-27T05:16:44;99679.53;;;3.27;100.00
3434;BME280;1730;41.932;25.548;2024-01-27T05:19:11;98972.13;;;-1.05;100.00
3434;BME280;1730;41.932;25.548;2024-01-27T05:21:37;99687.53;;;3.27;100.00
3434;BME280;1730;41.932;25.548;2024-01-27T05:24:04;99693.75;;;3.13;100.00
3434;BME280;1730;41.932;25.548;2024-01-27T05:26:30;99703.09;;;3.20;100.00
3434;BME280;1730;41.932;25.548;2024-01-27T05:28:56;99625.56;;;2.55;100.00
3434;BME280;1730;41.932;25.548;2024-01-27T05:31:21;99751.97;;;3.19;100.00
3434;BME280;1730;41.932;25.548;2024-01-27T05:33:47;99725.50;;;3.30;100.00
3434;BME280;1730;41.932;25.548;2024-01-27T05:36:12;99700.00;;;3.26;100.00
3434;BME280;1730;41.932;25.548;2024-01-27T05:38:39;99516.53;;;2.27;100.00
3434;BME280;1730;41.932;25.548;2024-01-27T05:41:05;99754.16;;;3.27;100.00
3434;BME280;1730;41.932;25.548;2024-01-27T05:43:30;99530.75;;;2.54;100.00
3434;BME280;1730;41.932;25.548;2024-01-27T05:45:56;99739.97;;;3.67;100.00
3434;BME280;1730;41.932;25.548;2024-01-27T05:48:21;99706.81;;;3.71;100.00
3434;BME280;1730;41.932;25.548;2024-01-27T05:50:58;99682.59;;;3.74;100.00
3434;BME280;1730;41.932;25.548;2024-01-27T05:53:24;99657.66;;;3.75;100.00
3434;BME280;1730;41.932;25.548;2024-01-27T05:55:53;99652.03;;;4.05;100.00
3434;BME280;1730;41.932;25.548;2024-01-27T05:58:24;99629.63;;;3.95;100.00
3434;BME280;1730;41.932;25.548;2024-01-27T06:00:50;99323.63;;;2.21;100.00
3434;BME280;1730;41.932;25.548;2024-01-27T06:03:15;99157.81;;;1.31;100.00
3434;BME280;1730;41.932;25.548;2024-01-27T06:05:42;99487.62;;;3.41;100.00
3434;BME280;1730;41.932;25.548;2024-01-27T06:08:07;99608.06;;;4.11;100.00
3434;BME280;1730;41.932;25.548;2024-01-27T06:10:33;99600.50;;;4.30;100.00
3434;BME280;1730;41.932;25.548;2024-01-27T06:13:02;99195.94;;;1.96;100.00
3434;BME280;1730;41.932;25.548;2024-01-27T06:15:27;99432.47;;;3.16;100.00
3434;BME280;1730;41.932;25.548;2024-01-27T06:17:53;99626.97;;;4.33;100.00
3434;BME280;1730;41.932;25.548;2024-01-27T06:20:19;99582.50;;;4.57;100.00
3434;BME280;1730;41.932;25.548;2024-01-27T06:22:44;99661.12;;;4.40;100.00
3434;BME280;1730;41.932;25.548;2024-01-27T06:25:10;99593.53;;;4.40;100.00
3434;BME280;1730;41.932;25.548;2024-01-27T06:27:39;99604.66;;;4.34;100.00
3434;BME280;1730;41.932;25.548;2024-01-27T06:30:08;99020.69;;;0.90;100.00
3434;BME280;1730;41.932;25.548;2024-01-27T06:32:35;99518.09;;;4.00;100.00
3434;BME280;1730;41.932;25.548;2024-01-27T06:35:00;99606.50;;;4.70;100.00
3434;BME280;1730;41.932;25.548;2024-01-27T06:37:26;99269.37;;;3.00;100.00
3434;BME280;1730;41.932;25.548;2024-01-27T06:39:58;99579.34;;;4.76;100.00
3434;BME280;1730;41.932;25.548;2024-01-27T06:42:23;99580.44;;;4.73;100.00
3434;BME280;1730;41.932;25.548;2024-01-27T06:44:49;99408.69;;;4.13;100.00
3434;BME280;1730;41.932;25.548;2024-01-27T06:47:15;99464.53;;;4.39;100.00
3434;BME280;1730;41.932;25.548;2024-01-27T06:49:41;99586.09;;;5.05;100.00
3434;BME280;1730;41.932;25.548;2024-01-27T06:52:07;99585.59;;;5.24;100.00
3434;BME280;1730;41.932;25.548;2024-01-27T06:54:32;99590.16;;;5.34;100.00
3434;BME280;1730;41.932;25.548;2024-01-27T06:57:02;98945.47;;;1.42;100.00
3434;BME280;1730;41.932;25.548;2024-01-27T06:59:28;99594.12;;;5.29;100.00
3434;BME280;1730;41.932;25.548;2024-01-27T07:01:56;99385.81;;;4.34;100.00
3434;BME280;1730;41.932;25.548;2024-01-27T07:04:23;99444.00;;;4.52;100.00
3434;BME280;1730;41.932;25.548;2024-01-27T07:06:48;99590.59;;;5.52;100.00
3434;BME280;1730;41.932;25.548;2024-01-27T07:09:13;99461.81;;;4.65;100.00
3434;BME280;1730;41.932;25.548;2024-01-27T07:11:39;99222.31;;;3.00;100.00
3434;BME280;1730;41.932;25.548;2024-01-27T07:14:05;99496.78;;;4.49;100.00
3434;BME280;1730;41.932;25.548;2024-01-27T07:16:32;99652.41;;;5.24;100.00
3434;BME280;1730;41.932;25.548;2024-01-27T07:18:59;99472.59;;;4.27;100.00
3434;BME280;1730;41.932;25.548;2024-01-27T07:21:24;99153.38;;;2.59;100.00
3434;BME280;1730;41.932;25.548;2024-01-27T07:23:51;99662.09;;;5.37;100.00
3434;BME280;1730;41.932;25.548;2024-01-27T07:26:18;99511.56;;;4.29;100.00
3434;BME280;1730;41.932;25.548;2024-01-27T07:28:43;99711.22;;;5.60;100.00
3434;BME280;1730;41.932;25.548;2024-01-27T07:31:09;99413.06;;;3.90;100.00
3434;BME280;1730;41.932;25.548;2024-01-27T07:33:35;99733.03;;;5.54;100.00
3434;BME280;1730;41.932;25.548;2024-01-27T07:36:00;99754.47;;;5.78;100.00
3434;BME280;1730;41.932;25.548;2024-01-27T07:38:27;99776.06;;;5.75;100.00
3434;BME280;1730;41.932;25.548;2024-01-27T07:40:52;99772.37;;;5.65;100.00
3434;BME280;1730;41.932;25.548;2024-01-27T07:43:18;99802.44;;;5.68;100.00
3434;BME280;1730;41.932;25.548;2024-01-27T07:45:43;99910.53;;;5.66;100.00
3434;BME280;1730;41.932;25.548;2024-01-27T07:48:12;99349.41;;;2.46;100.00
3434;BME280;1730;41.932;25.548;2024-01-27T07:50:38;99705.13;;;4.60;100.00
3434;BME280;1730;41.932;25.548;2024-01-27T07:53:03;99889.66;;;5.58;100.00
3434;BME280;1730;41.932;25.548;2024-01-27T07:55:29;99305.06;;;2.07;100.00
3434;BME280;1730;41.932;25.548;2024-01-27T07:57:55;99607.44;;;4.20;100.00
3434;BME280;1730;41.932;25.548;2024-01-27T08:00:20;99904.31;;;6.14;100.00
3434;BME280;1730;41.932;25.548;2024-01-27T08:02:46;99885.00;;;5.98;100.00
3434;BME280;1730;41.932;25.548;2024-01-27T08:05:13;99574.13;;;4.25;100.00
3434;BME280;1730;41.932;25.548;2024-01-27T08:07:38;99802.28;;;5.46;100.00
3434;BME280;1730;41.932;25.548;2024-01-27T08:10:10;99808.19;;;5.75;100.00
3434;BME280;1730;41.932;25.548;2024-01-27T08:12:39;99938.44;;;6.84;100.00
3434;BME280;1730;41.932;25.548;2024-01-27T08:15:06;99920.41;;;6.86;100.00
3434;BME280;1730;41.932;25.548;2024-01-27T08:17:54;99924.87;;;7.09;100.00
3434;BME280;1730;41.932;25.548;2024-01-27T08:20:21;99595.81;;;5.06;100.00
3434;BME280;1730;41.932;25.548;2024-01-27T08:22:47;99770.94;;;6.08;100.00
3434;BME280;1730;41.932;25.548;2024-01-27T08:25:18;99649.97;;;5.44;100.00
3434;BME280;1730;41.932;25.548;2024-01-27T08:27:43;99440.03;;;4.34;100.00
3434;BME280;1730;41.932;25.548;2024-01-27T08:30:09;99909.03;;;7.17;100.00
3434;BME280;1730;41.932;25.548;2024-01-27T08:32:38;99948.13;;;6.97;100.00
3434;BME280;1730;41.932;25.548;2024-01-27T08:35:04;99926.63;;;6.86;100.00
3434;BME280;1730;41.932;25.548;2024-01-27T08:37:30;99920.03;;;6.79;100.00
3434;BME280;1730;41.932;25.548;2024-01-27T08:39:57;99941.00;;;6.61;100.00
3434;BME280;1730;41.932;25.548;2024-01-27T08:42:23;99971.56;;;6.59;100.00
3434;BME280;1730;41.932;25.548;2024-01-27T08:44:49;100016.37;;;6.80;100.00
3434;BME280;1730;41.932;25.548;2024-01-27T08:47:14;99915.09;;;5.89;100.00
3434;BME280;1730;41.932;25.548;2024-01-27T08:49:40;100039.09;;;6.88;100.00
3434;BME280;1730;41.932;25.548;2024-01-27T08:52:06;100037.03;;;6.91;100.00
3434;BME280;1730;41.932;25.548;2024-01-27T08:54:32;99589.09;;;4.02;100.00
3434;BME280;1730;41.932;25.548;2024-01-27T08:56:58;99926.22;;;5.58;100.00
3434;BME280;1730;41.932;25.548;2024-01-27T08:59:25;100111.78;;;6.83;100.00
3434;BME280;1730;41.932;25.548;2024-01-27T09:01:50;100121.84;;;6.92;100.00
3434;BME280;1730;41.932;25.548;2024-01-27T09:04:16;99961.31;;;6.16;100.00
3434;BME280;1730;41.932;25.548;2024-01-27T09:06:42;100133.84;;;7.47;100.00
3434;BME280;1730;41.932;25.548;2024-01-27T09:09:09;99901.37;;;5.94;100.00
3434;BME280;1730;41.932;25.548;2024-01-27T09:11:34;100128.84;;;7.42;100.00
3434;BME280;1730;41.932;25.548;2024-01-27T09:14:00;100137.56;;;7.57;100.00
3434;BME280;1730;41.932;25.548;2024-01-27T09:16:26;100175.59;;;7.75;100.00
3434;BME280;1730;41.932;25.548;2024-01-27T09:18:52;100094.19;;;7.15;100.00
3434;BME280;1730;41.932;25.548;2024-01-27T09:21:19;100066.34;;;6.82;100.00
3434;BME280;1730;41.932;25.548;2024-01-27T09:23:48;99968.25;;;6.55;100.00
3434;BME280;1730;41.932;25.548;2024-01-27T09:26:13;100186.00;;;7.79;100.00
3434;BME280;1730;41.932;25.548;2024-01-27T09:28:40;100192.59;;;7.86;100.00
3434;BME280;1730;41.932;25.548;2024-01-27T09:31:10;100059.28;;;7.04;100.00
3434;BME280;1730;41.932;25.548;2024-01-27T09:33:36;100181.59;;;7.78;100.00
3434;BME280;1730;41.932;25.548;2024-01-27T09:36:03;100194.84;;;7.68;100.00
3434;BME280;1730;41.932;25.548;2024-01-27T09:38:29;100195.66;;;7.58;100.00
3434;BME280;1730;41.932;25.548;2024-01-27T09:40:55;99933.16;;;6.11;100.00
3434;BME280;1730;41.932;25.548;2024-01-27T09:43:21;100224.06;;;7.60;100.00
3434;BME280;1730;41.932;25.548;2024-01-27T09:45:49;100203.88;;;7.67;100.00
3434;BME280;1730;41.932;25.548;2024-01-27T09:48:15;100195.03;;;7.54;100.00
3434;BME280;1730;41.932;25.548;2024-01-27T09:50:41;99628.66;;;4.08;100.00
3434;BME280;1730;41.932;25.548;2024-01-27T09:53:08;99995.16;;;6.54;100.00
3434;BME280;1730;41.932;25.548;2024-01-27T09:55:34;100109.84;;;7.45;100.00
3434;BME280;1730;41.932;25.548;2024-01-27T09:58:01;100083.78;;;7.23;100.00
3434;BME280;1730;41.932;25.548;2024-01-27T10:00:27;99542.03;;;3.89;100.00
3434;BME280;1730;41.932;25.548;2024-01-27T10:02:55;99534.63;;;4.18;100.00
3434;BME280;1730;41.932;25.548;2024-01-27T10:05:23;100127.53;;;7.83;100.00
3434;BME280;1730;41.932;25.548;2024-01-27T10:07:50;99971.25;;;6.98;100.00
3434;BME280;1730;41.932;25.548;2024-01-27T10:10:16;99650.87;;;5.09;100.00
3434;BME280;1730;41.932;25.548;2024-01-27T10:12:42;100159.16;;;7.90;100.00
3434;BME280;1730;41.932;25.548;2024-01-27T10:15:20;100129.06;;;7.63;100.00
3434;BME280;1730;41.932;25.548;2024-01-27T10:17:47;100158.41;;;7.53;100.00
3434;BME280;1730;41.932;25.548;2024-01-27T10:20:13;100189.03;;;8.09;100.00
3434;BME280;1730;41.932;25.548;2024-01-27T10:22:44;100114.78;;;7.62;100.00
3434;BME280;1730;41.932;25.548;2024-01-27T10:25:11;100168.66;;;8.18;100.00
3434;BME280;1730;41.932;25.548;2024-01-27T10:27:38;100135.16;;;8.00;100.00
3434;BME280;1730;41.932;25.548;2024-01-27T10:30:06;100111.44;;;8.29;100.00
3434;BME280;1730;41.932;25.548;2024-01-27T10:32:42;99831.88;;;7.09;100.00
3434;BME280;1730;41.932;25.548;2024-01-27T10:35:08;100075.53;;;8.30;100.00
3434;BME280;1730;41.932;25.548;2024-01-27T10:37:35;99758.25;;;6.80;100.00
3434;BME280;1730;41.932;25.548;2024-01-27T10:40:06;99904.63;;;7.84;100.00
3434;BME280;1730;41.932;25.548;2024-01-27T10:42:39;99872.25;;;7.97;100.00
3434;BME280;1730;41.932;25.548;2024-01-27T10:45:05;100011.31;;;9.03;100.00
3434;BME280;1730;41.932;25.548;2024-01-27T10:47:31;99383.34;;;5.69;100.00
3434;BME280;1730;41.932;25.548;2024-01-27T10:49:59;99859.00;;;9.32;100.00
3434;BME280;1730;41.932;25.548;2024-01-27T10:52:31;99821.69;;;9.48;100.00
3434;BME280;1730;41.932;25.548;2024-01-27T10:55:03;99675.25;;;9.80;100.00
3434;BME280;1730;41.932;25.548;2024-01-27T10:57:37;99439.94;;;9.15;100.00
3434;BME280;1730;41.932;25.548;2024-01-27T11:00:06;99568.16;;;10.39;100.00
3434;BME280;1730;41.932;25.548;2024-01-27T11:02:33;99547.56;;;10.38;100.00
3434;BME280;1730;41.932;25.548;2024-01-27T11:05:04;99536.78;;;10.38;100.00
3434;BME280;1730;41.932;25.548;2024-01-27T11:07:34;99366.34;;;9.63;100.00
3434;BME280;1730;41.932;25.548;2024-01-27T11:10:01;99323.13;;;9.64;100.00
3434;BME280;1730;41.932;25.548;2024-01-27T11:12:27;99481.78;;;10.59;100.00
3434;BME280;1730;41.932;25.548;2024-01-27T11:14:59;99316.69;;;9.75;100.00
3434;BME280;1730;41.932;25.548;2024-01-27T11:17:25;99479.88;;;10.69;100.00
3434;BME280;1730;41.932;25.548;2024-01-27T11:19:50;99492.50;;;10.68;100.00
3434;BME280;1730;41.932;25.548;2024-01-27T11:22:27;99463.84;;;10.67;100.00
3434;BME280;1730;41.932;25.548;2024-01-27T11:28:00;99488.31;;;11.37;100.00
3434;BME280;1730;41.932;25.548;2024-01-27T11:30:35;99404.84;;;11.17;100.00
3434;BME280;1730;41.932;25.548;2024-01-27T11:33:06;99258.84;;;10.24;100.00
3434;BME280;1730;41.932;25.548;2024-01-27T11:35:37;99230.03;;;10.07;100.00
3434;BME280;1730;41.932;25.548;2024-01-27T11:38:05;99261.34;;;9.90;100.00
3434;BME280;1730;41.932;25.548;2024-01-27T11:40:44;99375.37;;;10.89;100.00
3434;BME280;1730;41.932;25.548;2024-01-27T11:43:12;99415.03;;;10.88;100.00
3434;BME280;1730;41.932;25.548;2024-01-27T11:45:55;99398.00;;;10.88;100.00
3434;BME280;1730;41.932;25.548;2024-01-27T11:48:21;99378.09;;;10.89;100.00
3434;BME280;1730;41.932;25.548;2024-01-27T11:50:47;98780.16;;;7.46;100.00
3434;BME280;1730;41.932;25.548;2024-01-27T11:53:15;98915.69;;;8.14;100.00
3434;BME280;1730;41.932;25.548;2024-01-27T11:55:41;99220.66;;;10.28;100.00
3434;BME280;1730;41.932;25.548;2024-01-27T11:58:06;99254.56;;;10.49;100.00
3434;BME280;1730;41.932;25.548;2024-01-27T12:00:32;99412.28;;;11.23;100.00
3434;BME280;1730;41.932;25.548;2024-01-27T12:02:58;99074.34;;;8.77;100.00
3434;BME280;1730;41.932;25.548;2024-01-27T12:05:24;99412.41;;;11.14;100.00
3434;BME280;1730;41.932;25.548;2024-01-27T12:07:50;99237.97;;;10.08;100.00
3434;BME280;1730;41.932;25.548;2024-01-27T12:10:16;99236.66;;;9.94;100.00
3434;BME280;1730;41.932;25.548;2024-01-27T12:12:43;99445.97;;;10.84;100.00
3434;BME280;1730;41.932;25.548;2024-01-27T12:15:11;99429.87;;;10.74;100.00
3434;BME280;1730;41.932;25.548;2024-01-27T12:17:36;99170.75;;;9.26;100.00
3434;BME280;1730;41.932;25.548;2024-01-27T12:20:14;99446.28;;;10.63;100.00
3434;BME280;1730;41.932;25.548;2024-01-27T12:22:40;99470.94;;;10.68;100.00
3434;BME280;1730;41.932;25.548;2024-01-27T12:25:11;99256.38;;;9.68;100.00
3434;BME280;1730;41.932;25.548;2024-01-27T12:27:43;99423.84;;;10.63;100.00
3434;BME280;1730;41.932;25.548;2024-01-27T12:30:09;99265.75;;;9.64;100.00
3434;BME280;1730;41.932;25.548;2024-01-27T12:32:35;99163.25;;;9.02;100.00
3434;BME280;1730;41.932;25.548;2024-01-27T12:35:06;99436.13;;;10.57;100.00
3434;BME280;1730;41.932;25.548;2024-01-27T12:37:32;99426.38;;;10.47;100.00
3434;BME280;1730;41.932;25.548;2024-01-27T12:40:02;99080.88;;;8.18;100.00
3434;BME280;1730;41.932;25.548;2024-01-27T12:42:28;99264.84;;;9.45;100.00
3434;BME280;1730;41.932;25.548;2024-01-27T12:44:53;99255.84;;;9.27;100.00
3434;BME280;1730;41.932;25.548;2024-01-27T12:47:19;99282.38;;;9.49;100.00
3434;BME280;1730;41.932;25.548;2024-01-27T12:49:48;98794.34;;;6.34;100.00
3434;BME280;1730;41.932;25.548;2024-01-27T12:52:13;99446.00;;;10.39;100.00
3434;BME280;1730;41.932;25.548;2024-01-27T12:54:40;99506.19;;;10.30;100.00
3434;BME280;1730;41.932;25.548;2024-01-27T12:57:06;99221.38;;;8.28;100.00
3434;BME280;1730;41.932;25.548;2024-01-27T12:59:34;99291.87;;;9.17;100.00
3434;BME280;1730;41.932;25.548;2024-01-27T13:02:00;99460.56;;;10.09;100.00
3434;BME280;1730;41.932;25.548;2024-01-27T13:04:26;99332.47;;;9.23;100.00
3434;BME280;1730;41.932;25.548;2024-01-27T13:06:51;98787.81;;;5.98;100.00
3434;BME280;1730;41.932;25.548;2024-01-27T13:09:20;99005.59;;;7.06;100.00